KVPS/VPS METAR and TAF weather

Enter ICAO airport designator
Station Type Date Time Source
KVPS METAR 2021/09/16 11:56 UTC NOAA

KVPS 161156Z AUTO 10005KT 10SM SCT005 BKN013 BKN033 OVC047 24/23 A2988 RMK AO2 RAE02DZB02E08RAB08E32DZB32E33RAB33E34RAB34E34 CIG 009V013 CIG 005 RWY19 SLP125 P0006 60077 70372 T02400231 10248 20236 53007 $


Station Type Date Time Source
KVPS Decoded METAR 2021/09/16 11:56 UTC NOAA

Valparaiso / Eglin Air Force Base, FL, United States (KVPS) 30-29N 086-31W 29M
Sep 16, 2021 - 07:56 AM EDT / 2021.09.16 1156 UTC
Wind: from the E (100 degrees) at 6 MPH (5 KT):0
Visibility: 10 mile(s):0
Sky conditions: overcast
Precipitation last hour: 0.06 inches
Temperature: 75.2 F (24.0 C)
Dew Point: 73.6 F (23.1 C)
Relative Humidity: 94%
Pressure (altimeter): 29.88 in. Hg (1011 hPa)
Pressure tendency: 0.02 inches (0.7 hPa) higher than three hours ago
ob: KVPS 161156Z AUTO 10005KT 10SM SCT005 BKN013 BKN033 OVC047 24/23 A2988 RMK AO2 RAE02DZB02E08RAB08E32DZB32E33RAB33E34RAB34E34 CIG 009V013 CIG 005 RWY19 SLP125 P0006 60077 70372 T02400231 10248 20236 53007
cycle: 12

Station Type Date Time Source
KVPS TAF 2021/09/16 09:03 UTC NOAA

TAF KVPS 160900Z 1609/1715 16009KT 8000 -SHRA BKN006 OVC020 QNH2984INS
TEMPO 1609/1613 18010G15KT 2400 +SHRA BKN020
BECMG 1614/1615 12010KT 9999 VCSH SCT006 BKN010 OVC035 QNH2992INS
BECMG 1617/1618 13009KT 8000 -SHRA VCTS SCT010CB BKN020 OVC050 QNH2990INS
TEMPO 1618/1623 15010G15KT 4800 -TSRA BKN010CB OVC020
BECMG 1623/1624 15009KT 9999 NSW BKN010 BKN020 OVC050 QNH2992INS
BECMG 1702/1703 16009KT 9999 BKN007 OVC020 QNH2996INS
BECMG 1708/1709 18009KT 9999 VCSH FEW007 BKN019 BKN025 QNH2995INS
BECMG 1714/1715 19009KT 8000 -SHRA SCT015 BKN025 OVC100 QNH2997INS TX27/1618Z TN23/1611Z

Example: see airport list